Time;durP1;ratioP1;P1;durP2;ratioP2;P2;SDS_P1;SDS_P2;PMS_P1;PMS_P2;Temp;Humidity;BMP_temperature;BMP_pressure;BME280_temperature;BME280_humidity;BME280_pressure;Samples;Min_cycle;Max_cycle;Signal;HPM_P1;HPM_P2
2021/04/21 00:01:32;;;;;;;168.97;156.23;;;10.60;99.90;;;;;;5111574;28;21397;-81
2021/04/21 00:04:00;;;;;;;109.10;95.33;;;10.50;99.90;;;;;;5112475;28;20529;-81
2021/04/21 00:06:27;;;;;;;88.87;65.67;;;10.40;99.90;;;;;;5094971;28;20534;-81
2021/04/21 00:08:55;;;;;;;105.97;94.67;;;10.40;99.90;;;;;;5103140;28;20514;-81
2021/04/21 00:11:23;;;;;;;99.67;81.73;;;10.40;99.90;;;;;;5104624;28;20541;-80
2021/04/21 00:13:51;;;;;;;118.63;105.77;;;10.30;99.90;;;;;;5091688;28;20486;-81
2021/04/21 00:16:18;;;;;;;116.30;103.40;;;10.30;99.90;;;;;;5103904;28;20470;-81
2021/04/21 00:18:46;;;;;;;86.60;60.73;;;10.20;99.90;;;;;;5104153;28;20472;-81
2021/04/21 00:21:13;;;;;;;91.83;77.47;;;10.10;99.90;;;;;;5088483;28;20453;-80
2021/04/21 00:23:41;;;;;;;92.90;65.70;;;10.00;99.90;;;;;;5094503;28;20460;-81
2021/04/21 00:26:12;;;;;;;117.87;106.63;;;10.00;99.90;;;;;;5106907;28;20489;-81
2021/04/21 00:28:39;;;;;;;156.57;143.60;;;9.90;99.90;;;;;;5108149;28;20439;-81
2021/04/21 00:31:07;;;;;;;185.67;171.07;;;9.80;99.90;;;;;;5108814;28;20447;-80
2021/04/21 00:33:35;;;;;;;181.47;168.03;;;9.80;99.90;;;;;;5108736;28;20515;-80
2021/04/21 00:36:06;;;;;;;281.83;264.33;;;9.80;99.90;;;;;;5111626;28;20466;-81
2021/04/21 00:38:35;;;;;;;328.00;307.90;;;9.80;99.90;;;;;;5084280;28;20819;-81
2021/04/21 00:41:10;;;;;;;367.50;346.03;;;9.70;99.90;;;;;;5082588;28;20455;-78
2021/04/21 00:43:43;;;;;;;463.87;437.87;;;9.70;99.90;;;;;;5101418;28;20450;-81
2021/04/21 00:46:13;;;;;;;466.10;440.57;;;9.70;99.90;;;;;;5105700;28;20518;-81
2021/04/21 00:48:54;;;;;;;633.30;599.10;;;9.60;99.90;;;;;;5085125;28;20534;-82
2021/04/21 00:51:27;;;;;;;555.63;524.50;;;9.60;99.90;;;;;;5087072;28;20521;-81
2021/04/21 00:54:02;;;;;;;500.13;471.80;;;9.60;99.90;;;;;;5091801;28;20517;-80
2021/04/21 00:56:36;;;;;;;589.70;557.03;;;9.50;99.90;;;;;;5095091;28;20530;-81
2021/04/21 00:59:09;;;;;;;481.80;456.03;;;9.40;99.90;;;;;;5115130;28;20464;-81
2021/04/21 01:01:37;;;;;;;513.03;483.93;;;9.40;99.90;;;;;;5111118;28;20497;-79
2021/04/21 01:04:05;;;;;;;526.83;496.83;;;9.40;99.90;;;;;;5093236;28;20455;-81
2021/04/21 01:06:36;;;;;;;507.70;478.67;;;9.40;99.90;;;;;;5088043;28;20535;-81
2021/04/21 01:09:05;;;;;;;531.03;500.33;;;9.30;99.90;;;;;;5098318;28;20529;-80
2021/04/21 01:11:36;;;;;;;434.47;408.57;;;9.30;99.90;;;;;;5097951;28;20796;-80
2021/04/21 01:14:06;;;;;;;432.13;407.13;;;9.20;99.90;;;;;;5100670;28;20460;-80
2021/04/21 01:16:35;;;;;;;584.80;549.53;;;9.10;99.90;;;;;;5082144;28;20490;-81
2021/04/21 01:19:10;;;;;;;450.87;424.60;;;9.10;99.90;;;;;;5079467;28;20443;-81
2021/04/21 01:21:42;;;;;;;477.30;447.53;;;9.10;99.90;;;;;;5096119;28;20442;-81
2021/04/21 01:24:19;;;;;;;677.43;636.80;;;9.00;99.90;;;;;;5101033;28;20472;-80
2021/04/21 01:26:50;;;;;;;600.23;564.73;;;9.00;99.90;;;;;;5099562;28;20537;-80
2021/04/21 01:29:22;;;;;;;619.27;582.93;;;9.00;99.90;;;;;;5100292;28;20450;-80
2021/04/21 01:31:49;;;;;;;575.80;540.80;;;8.90;99.90;;;;;;5098475;28;20616;-81
2021/04/21 01:34:20;;;;;;;615.20;578.53;;;8.90;99.90;;;;;;5099687;28;20897;-81
2021/04/21 01:36:47;;;;;;;766.97;720.43;;;8.90;99.90;;;;;;5099081;28;20481;-82
2021/04/21 01:39:15;;;;;;;803.40;756.07;;;8.80;99.90;;;;;;5097365;28;20876;-81
2021/04/21 01:41:44;;;;;;;632.97;597.40;;;8.80;99.90;;;;;;5080674;28;20459;-81
2021/04/21 01:44:14;;;;;;;683.70;644.20;;;8.80;99.90;;;;;;5098881;28;20458;-81
2021/04/21 01:46:44;;;;;;;592.67;558.17;;;8.70;99.90;;;;;;5099975;28;20477;-81
2021/04/21 01:49:51;;;;;;;715.83;673.17;;;8.80;99.90;;;;;;5081122;28;20447;-81
2021/04/21 01:52:31;;;;;;;758.10;714.07;;;8.80;99.90;;;;;;5080504;28;20482;-81
2021/04/21 01:55:08;;;;;;;680.67;640.40;;;8.70;99.90;;;;;;5097013;28;20548;-82
2021/04/21 01:57:43;;;;;;;822.30;773.13;;;8.70;99.90;;;;;;5085228;28;20450;-81
2021/04/21 02:00:12;;;;;;;395.70;371.90;;;8.60;99.90;;;;;;5083579;28;20537;-80
2021/04/21 02:02:43;;;;;;;549.00;516.00;;;8.60;99.90;;;;;;5077028;28;20479;-81
2021/04/21 02:05:19;;;;;;;610.50;574.63;;;8.60;99.90;;;;;;5094630;28;20485;-80
2021/04/21 02:07:59;;;;;;;595.47;560.17;;;8.50;99.90;;;;;;5090506;28;20538;-81
2021/04/21 02:10:36;;;;;;;483.90;454.60;;;8.50;99.90;;;;;;5100258;28;20560;-81
2021/04/21 02:13:21;;;;;;;441.97;415.43;;;8.40;99.90;;;;;;5085158;28;20569;-80
2021/04/21 02:16:02;;;;;;;500.40;470.33;;;8.40;99.90;;;;;;5079774;28;20459;-80
2021/04/21 02:18:47;;;;;;;496.53;466.13;;;8.30;99.90;;;;;;5096638;28;20858;-80
2021/04/21 02:21:20;;;;;;;483.80;455.67;;;8.30;99.90;;;;;;5089488;28;20443;-81
2021/04/21 02:23:54;;;;;;;455.20;427.17;;;8.30;99.90;;;;;;5076722;28;20450;-81
2021/04/21 02:26:27;;;;;;;536.83;505.10;;;8.30;99.90;;;;;;5084336;28;20473;-81
2021/04/21 02:28:59;;;;;;;409.33;384.20;;;8.30;99.90;;;;;;5097888;28;20461;-82
2021/04/21 02:31:41;;;;;;;425.77;399.57;;;8.20;99.90;;;;;;5087363;28;20652;-81
2021/04/21 02:34:14;;;;;;;540.40;507.97;;;8.30;99.90;;;;;;5093082;28;20450;-81
2021/04/21 02:36:45;;;;;;;393.97;369.90;;;8.20;99.90;;;;;;5098053;28;20499;-81
2021/04/21 02:39:20;;;;;;;299.13;278.97;;;8.10;99.90;;;;;;5085829;28;20474;-80
2021/04/21 02:41:55;;;;;;;426.30;400.87;;;8.10;99.90;;;;;;5078977;28;20534;-81
2021/04/21 02:44:29;;;;;;;431.00;402.47;;;8.10;99.90;;;;;;5078895;28;20504;-82
2021/04/21 02:47:02;;;;;;;477.00;448.43;;;8.00;99.90;;;;;;5076202;28;20458;-81
2021/04/21 02:49:46;;;;;;;350.87;328.17;;;8.00;99.90;;;;;;5080456;28;20461;-82
2021/04/21 02:52:22;;;;;;;493.80;463.30;;;8.00;99.90;;;;;;5097565;28;20481;-81
2021/04/21 02:55:00;;;;;;;517.60;485.43;;;8.00;99.90;;;;;;5079880;28;20465;-81
2021/04/21 02:57:34;;;;;;;540.83;507.50;;;7.90;99.90;;;;;;5102212;28;20691;-80
2021/04/21 03:00:05;;;;;;;588.47;552.67;;;7.90;99.90;;;;;;5089343;28;20480;-81
2021/04/21 03:02:34;;;;;;;428.30;401.87;;;7.90;99.90;;;;;;5093724;28;20446;-80
2021/04/21 03:05:09;;;;;;;363.30;341.07;;;7.90;99.90;;;;;;5089169;28;21567;-80
2021/04/21 03:07:43;;;;;;;344.20;322.33;;;7.90;99.90;;;;;;5099102;28;21178;-80
2021/04/21 03:10:13;;;;;;;409.80;383.20;;;7.80;99.90;;;;;;5089961;28;20523;-81
2021/04/21 03:12:46;;;;;;;195.90;178.63;;;7.80;99.90;;;;;;5078970;28;20959;-80
2021/04/21 03:15:16;;;;;;;179.73;162.53;;;7.70;99.90;;;;;;5078758;28;20486;-80
2021/04/21 03:17:44;;;;;;;369.90;346.63;;;7.70;99.90;;;;;;5095318;28;20446;-81
2021/04/21 03:20:16;;;;;;;270.70;251.43;;;7.70;99.90;;;;;;5079382;28;20455;-81
2021/04/21 03:22:45;;;;;;;452.10;425.03;;;7.70;99.90;;;;;;5078142;28;20550;-80
2021/04/21 03:25:14;;;;;;;184.73;167.53;;;7.60;99.90;;;;;;5097537;28;20481;-81
2021/04/21 03:27:43;;;;;;;298.63;277.50;;;7.60;99.90;;;;;;5096265;28;20446;-81
2021/04/21 03:30:13;;;;;;;477.80;449.50;;;7.60;99.90;;;;;;5095038;28;20987;-82
2021/04/21 03:32:42;;;;;;;431.93;405.43;;;7.60;99.90;;;;;;5094697;28;20516;-82
2021/04/21 03:35:12;;;;;;;385.80;361.57;;;7.60;99.90;;;;;;5083474;28;20879;-82
2021/04/21 03:37:50;;;;;;;346.03;323.27;;;7.60;99.90;;;;;;5099226;28;20449;-82
2021/04/21 03:40:18;;;;;;;428.53;401.93;;;7.60;99.90;;;;;;5083666;28;20443;-80
2021/04/21 03:42:45;;;;;;;433.47;406.20;;;7.50;99.90;;;;;;5079005;28;20473;-81
2021/04/21 03:45:13;;;;;;;370.20;347.20;;;7.40;99.90;;;;;;5094688;28;20550;-82
2021/04/21 03:47:40;;;;;;;267.67;248.30;;;7.40;99.90;;;;;;5088669;28;20451;-81
2021/04/21 03:50:09;;;;;;;282.73;262.80;;;7.40;99.90;;;;;;5082660;28;20457;-82
2021/04/21 03:52:39;;;;;;;192.27;175.93;;;7.40;99.90;;;;;;5100136;28;20492;-82
2021/04/21 03:55:07;;;;;;;428.30;402.80;;;7.40;99.90;;;;;;5098511;28;20475;-80
2021/04/21 03:57:36;;;;;;;357.63;335.00;;;7.40;99.90;;;;;;5099020;28;20464;-79
2021/04/21 04:00:05;;;;;;;306.87;286.07;;;7.30;99.90;;;;;;5096406;28;20471;-80
2021/04/21 04:02:34;;;;;;;499.70;470.87;;;7.30;99.90;;;;;;5070138;28;20894;-80
2021/04/21 04:05:03;;;;;;;486.70;457.53;;;7.30;99.90;;;;;;5075314;28;20513;-80
2021/04/21 04:07:33;;;;;;;294.53;273.57;;;7.30;99.90;;;;;;5098588;28;20453;-80
2021/04/21 04:10:03;;;;;;;389.57;365.30;;;7.30;99.90;;;;;;5089182;28;20459;-78
2021/04/21 04:12:35;;;;;;;388.67;364.53;;;7.30;99.90;;;;;;5078746;28;20494;-80
2021/04/21 04:15:03;;;;;;;179.87;163.57;;;7.30;99.90;;;;;;5098450;28;20913;-80
2021/04/21 04:17:31;;;;;;;248.07;228.90;;;7.30;99.90;;;;;;5098912;28;20946;-80
2021/04/21 04:19:59;;;;;;;233.70;215.40;;;7.30;99.90;;;;;;5093594;28;20452;-80
2021/04/21 04:22:30;;;;;;;272.70;252.43;;;7.20;99.90;;;;;;5098267;28;21174;-80
2021/04/21 04:24:58;;;;;;;262.40;242.83;;;7.20;99.90;;;;;;5090110;28;20475;-81
2021/04/21 04:27:27;;;;;;;171.07;154.93;;;7.20;99.90;;;;;;5085016;28;20457;-79
2021/04/21 04:29:54;;;;;;;169.20;152.53;;;7.20;99.90;;;;;;5099908;28;20534;-80
2021/04/21 04:32:22;;;;;;;129.10;105.93;;;7.30;99.90;;;;;;5098963;28;20478;-80
2021/04/21 04:34:51;;;;;;;271.27;250.80;;;7.30;99.90;;;;;;5093127;28;20489;-80
2021/04/21 04:37:19;;;;;;;211.53;193.73;;;7.40;99.90;;;;;;5080114;28;20439;-80
2021/04/21 04:39:46;;;;;;;274.87;254.40;;;7.50;99.90;;;;;;5084184;28;20447;-81
2021/04/21 04:42:13;;;;;;;142.80;127.90;;;7.60;99.90;;;;;;5101687;28;20533;-80
2021/04/21 04:44:43;;;;;;;235.10;216.17;;;7.70;99.90;;;;;;5098317;28;20979;-80
2021/04/21 04:47:12;;;;;;;235.90;217.27;;;7.80;99.90;;;;;;5084846;28;20485;-80
2021/04/21 04:49:46;;;;;;;217.27;200.30;;;7.90;99.90;;;;;;5096359;28;20465;-80
2021/04/21 04:52:15;;;;;;;289.53;269.60;;;7.90;99.90;;;;;;5077648;28;20482;-79
2021/04/21 04:54:43;;;;;;;329.77;308.83;;;8.00;99.90;;;;;;5098647;28;20464;-80
2021/04/21 04:57:11;;;;;;;385.77;361.27;;;8.10;99.90;;;;;;5097483;28;20512;-82
2021/04/21 04:59:38;;;;;;;559.60;525.83;;;8.20;99.90;;;;;;5080981;28;20515;-82
2021/04/21 05:02:09;;;;;;;304.23;282.43;;;8.30;99.90;;;;;;5076733;28;20459;-82
2021/04/21 05:04:38;;;;;;;556.07;517.50;;;8.30;99.90;;;;;;5078514;28;20451;-79
2021/04/21 05:07:07;;;;;;;642.97;603.23;;;8.60;99.90;;;;;;5119506;22;20517;-86
2021/04/21 05:09:39;;;;;;;587.37;550.77;;;10.20;99.90;;;;;;5135036;27;20448;-85
2021/04/21 05:12:10;;;;;;;638.00;600.97;;;10.50;99.90;;;;;;5124063;27;20515;-86
2021/04/21 05:14:38;;;;;;;1999.90;999.90;;;10.20;99.90;;;;;;5115119;27;21027;-85
2021/04/21 05:17:37;;;;;;;1999.90;999.90;;;10.10;99.90;;;;;;5099108;28;20533;-85
2021/04/21 05:20:31;;;;;;;1432.60;758.53;;;9.90;99.90;;;;;;5092149;28;20479;-86
2021/04/21 05:23:56;;;;;;;1999.90;999.90;;;9.80;99.90;;;;;;5104367;28;20974;-86
2021/04/21 05:27:00;;;;;;;1999.90;999.90;;;9.60;99.90;;;;;;5096101;28;20492;-85
2021/04/21 05:30:09;;;;;;;1508.23;831.37;;;9.60;99.90;;;;;;5111896;28;20439;-85
2021/04/21 05:33:12;;;;;;;428.53;400.47;;;9.50;99.90;;;;;;5103087;28;20507;-84
2021/04/21 05:36:18;;;;;;;286.13;263.27;;;9.50;99.90;;;;;;5085444;28;21441;-85
2021/04/21 05:39:45;;;;;;;364.23;339.33;;;9.50;99.90;;;;;;5090658;28;20588;-85
2021/04/21 05:42:45;;;;;;;462.77;433.53;;;9.50;99.90;;;;;;5092052;28;20810;-85
2021/04/21 05:45:56;;;;;;;262.03;240.87;;;9.50;99.90;;;;;;5085130;28;20453;-85
2021/04/21 05:48:57;;;;;;;479.27;448.87;;;9.50;99.90;;;;;;5062114;28;20450;-85
2021/04/21 05:51:50;;;;;;;270.80;248.47;;;9.60;99.90;;;;;;5088150;28;20455;-85
2021/04/21 05:54:45;;;;;;;338.30;312.97;;;9.50;99.90;;;;;;5096691;28;20454;-84
2021/04/21 05:57:50;;;;;;;317.77;294.03;;;9.50;99.90;;;;;;5086718;28;20537;-84
2021/04/21 06:00:55;;;;;;;599.10;562.40;;;9.60;99.90;;;;;;5079719;28;20942;-85
2021/04/21 06:03:23;;;;;;;625.17;587.93;;;9.60;99.90;;;;;;5081380;28;20540;-85
2021/04/21 06:05:50;;;;;;;472.03;442.90;;;9.80;99.90;;;;;;5085296;28;20523;-86
2021/04/21 06:08:16;;;;;;;592.97;556.73;;;10.00;99.90;;;;;;5091010;28;20504;-84
2021/04/21 06:10:44;;;;;;;582.37;546.13;;;10.30;99.90;;;;;;5095105;28;20450;-85
2021/04/21 06:13:11;;;;;;;1569.10;887.90;;;10.60;99.90;;;;;;5081466;28;20624;-85
2021/04/21 06:15:39;;;;;;;1999.90;999.90;;;10.90;99.90;;;;;;5097582;28;20472;-84
2021/04/21 06:18:07;;;;;;;1999.90;999.90;;;11.20;99.90;;;;;;5100789;28;20503;-83
2021/04/21 06:20:37;;;;;;;1999.90;999.90;;;11.40;99.90;;;;;;5094277;28;20524;-83
2021/04/21 06:23:09;;;;;;;1999.90;999.90;;;11.50;99.90;;;;;;5089131;28;20517;-83
2021/04/21 06:25:36;;;;;;;1999.90;999.90;;;11.60;99.90;;;;;;5088916;28;20451;-83
2021/04/21 06:28:22;;;;;;;1999.90;999.90;;;11.80;99.90;;;;;;5090815;28;20473;-82
2021/04/21 06:30:50;;;;;;;1999.90;999.90;;;11.90;99.90;;;;;;5088776;28;20506;-85
2021/04/21 06:33:17;;;;;;;1999.90;999.90;;;12.10;99.90;;;;;;5091050;28;20485;-84
2021/04/21 06:35:44;;;;;;;1999.90;999.90;;;12.30;99.90;;;;;;5076574;28;20516;-85
2021/04/21 06:38:14;;;;;;;1999.90;999.90;;;12.70;99.90;;;;;;5085611;28;20499;-83
2021/04/21 06:40:43;;;;;;;1999.90;999.90;;;12.90;99.90;;;;;;5081983;28;20462;-82
2021/04/21 06:43:09;;;;;;;1999.90;999.90;;;13.10;99.90;;;;;;5081094;28;20434;-83
2021/04/21 06:45:37;;;;;;;1999.90;999.90;;;13.30;99.90;;;;;;5092656;28;20886;-83
2021/04/21 06:48:06;;;;;;;1999.90;999.90;;;13.30;99.90;;;;;;5090953;28;20553;-84
2021/04/21 06:50:34;;;;;;;1999.90;999.90;;;13.50;99.90;;;;;;5086377;28;20804;-85
2021/04/21 06:53:03;;;;;;;1999.90;999.90;;;13.70;99.90;;;;;;5089244;28;20490;-84
2021/04/21 06:55:30;;;;;;;1999.90;999.90;;;13.90;99.90;;;;;;5081552;28;20477;-81
2021/04/21 06:57:57;;;;;;;1999.90;999.90;;;14.00;99.90;;;;;;5090010;28;20489;-83
2021/04/21 07:00:25;;;;;;;1999.90;999.90;;;14.10;99.90;;;;;;5094376;28;20442;-83
2021/04/21 07:02:54;;;;;;;1999.90;999.90;;;14.10;99.90;;;;;;5093094;28;20505;-84
2021/04/21 07:05:30;;;;;;;1999.90;999.90;;;13.70;99.90;;;;;;5089169;28;20446;-83
2021/04/21 07:08:02;;;;;;;1999.90;999.90;;;14.20;99.90;;;;;;5101275;28;20864;-84
2021/04/21 07:10:29;;;;;;;1999.90;999.90;;;14.60;99.90;;;;;;5094731;28;20450;-82
2021/04/21 07:12:57;;;;;;;1999.90;999.90;;;14.90;99.90;;;;;;5097322;28;20556;-84
2021/04/21 07:15:24;;;;;;;1999.90;999.90;;;14.90;99.90;;;;;;5096393;28;20505;-84
2021/04/21 07:17:51;;;;;;;1999.90;999.90;;;14.70;99.90;;;;;;5098131;28;21267;-85
2021/04/21 07:20:19;;;;;;;1420.03;744.73;;;14.90;99.90;;;;;;5095986;28;20474;-83
2021/04/21 07:22:47;;;;;;;725.13;678.63;;;15.30;99.90;;;;;;5087052;28;20451;-83
2021/04/21 07:25:15;;;;;;;63.33;56.53;;;15.50;99.90;;;;;;5093169;28;21275;-82
2021/04/21 07:27:43;;;;;;;27.83;21.00;;;15.20;99.90;;;;;;5096961;28;20907;-83
2021/04/21 07:30:11;;;;;;;29.13;22.37;;;15.40;99.90;;;;;;5091486;28;20454;-84
2021/04/21 07:32:44;;;;;;;30.00;23.50;;;15.40;99.90;;;;;;5085694;28;20985;-83
2021/04/21 07:35:19;;;;;;;30.83;25.10;;;15.60;99.90;;;;;;5098676;28;20463;-84
2021/04/21 07:37:46;;;;;;;30.10;23.90;;;15.60;99.90;;;;;;5094714;28;20584;-84
2021/04/21 07:40:35;;;;;;;29.33;22.53;;;16.00;99.90;;;;;;5093238;28;20458;-83
2021/04/21 07:43:10;;;;;;;27.57;20.90;;;17.00;99.90;;;;;;5096802;28;20525;-84
2021/04/21 07:45:48;;;;;;;23.43;18.87;;;18.10;99.90;;;;;;5100628;28;20454;-85
2021/04/21 07:48:41;;;;;;;29.20;20.80;;;19.10;99.90;;;;;;5082947;28;20470;-84
2021/04/21 07:51:34;;;;;;;29.23;21.07;;;19.80;99.90;;;;;;5096603;28;20514;-85
2021/04/21 07:54:03;;;;;;;30.00;21.70;;;20.20;99.90;;;;;;5092583;28;20497;-85
2021/04/21 07:56:35;;;;;;;25.07;20.47;;;20.30;99.90;;;;;;5099618;28;20512;-85
2021/04/21 07:59:19;;;;;;;24.50;19.87;;;20.80;99.90;;;;;;5088039;28;20466;-85
2021/04/21 08:01:46;;;;;;;23.50;20.17;;;21.80;99.90;;;;;;5090335;28;20599;-85
2021/04/21 08:04:14;;;;;;;24.33;20.50;;;22.00;99.90;;;;;;5085908;28;20459;-84
2021/04/21 08:06:42;;;;;;;25.67;20.70;;;21.70;99.90;;;;;;5084451;28;20875;-85
2021/04/21 08:09:08;;;;;;;27.20;20.20;;;22.50;99.90;;;;;;5090038;28;21042;-85
2021/04/21 08:11:35;;;;;;;25.13;20.80;;;23.20;99.90;;;;;;5086959;28;20469;-85
2021/04/21 08:14:01;;;;;;;23.10;18.50;;;24.00;99.10;;;;;;5096873;28;20939;-86
2021/04/21 08:16:30;;;;;;;23.17;19.63;;;24.60;95.30;;;;;;5083834;28;20475;-83
2021/04/21 08:18:57;;;;;;;22.17;19.83;;;24.60;94.20;;;;;;5090327;28;20446;-85
2021/04/21 08:21:43;;;;;;;20.43;18.23;;;25.30;96.10;;;;;;5096553;28;20540;-84
2021/04/21 08:24:13;;;;;;;26.47;20.60;;;25.90;89.40;;;;;;5089804;28;20443;-85
2021/04/21 08:26:42;;;;;;;25.77;19.93;;;26.10;87.30;;;;;;5087033;28;20543;-84
2021/04/21 08:29:11;;;;;;;19.57;16.50;;;26.20;82.00;;;;;;5087587;28;20466;-86
2021/04/21 08:31:39;;;;;;;20.40;17.10;;;25.90;77.20;;;;;;5081467;28;20524;-85
2021/04/21 08:34:06;;;;;;;20.93;17.17;;;26.40;76.10;;;;;;5088509;28;20486;-83
2021/04/21 08:36:33;;;;;;;24.47;18.27;;;26.10;69.90;;;;;;5080294;28;20475;-85
2021/04/21 08:39:00;;;;;;;24.37;16.50;;;26.90;71.00;;;;;;5091658;28;20970;-83
2021/04/21 08:41:28;;;;;;;20.80;17.17;;;27.70;69.20;;;;;;5094605;28;20442;-85
2021/04/21 08:43:55;;;;;;;22.43;15.77;;;28.00;70.20;;;;;;5100488;28;20454;-85
2021/04/21 08:46:23;;;;;;;23.37;17.70;;;28.20;62.10;;;;;;5100658;28;21774;-85
2021/04/21 08:48:49;;;;;;;17.87;15.47;;;28.00;59.70;;;;;;5099365;28;20442;-85
2021/04/21 08:51:17;;;;;;;21.50;14.40;;;28.10;62.50;;;;;;5085011;28;20447;-84
2021/04/21 08:53:49;;;;;;;20.37;15.00;;;28.50;63.70;;;;;;5087381;28;20545;-83
2021/04/21 08:56:18;;;;;;;18.37;14.67;;;29.10;60.10;;;;;;5087860;28;20431;-84
2021/04/21 08:58:46;;;;;;;17.93;15.00;;;29.30;59.80;;;;;;5084743;28;20955;-83
2021/04/21 09:01:14;;;;;;;17.83;14.43;;;28.60;56.50;;;;;;5083132;28;20504;-83
2021/04/21 09:03:43;;;;;;;17.87;13.27;;;27.60;55.90;;;;;;5103965;28;20446;-84
2021/04/21 09:06:10;;;;;;;18.53;14.17;;;27.20;57.60;;;;;;5101315;28;20460;-83
2021/04/21 09:08:38;;;;;;;17.43;11.77;;;25.50;55.00;;;;;;5095595;28;21665;-83
2021/04/21 09:11:04;;;;;;;16.73;12.70;;;25.40;57.10;;;;;;5096599;28;20442;-84
2021/04/21 09:13:31;;;;;;;16.20;12.70;;;24.20;54.80;;;;;;5079122;28;20942;-84
2021/04/21 09:15:59;;;;;;;16.97;13.07;;;23.80;56.60;;;;;;5082278;28;20515;-84
2021/04/21 09:18:26;;;;;;;13.33;10.60;;;23.60;57.40;;;;;;5081703;28;20443;-83
2021/04/21 09:20:53;;;;;;;15.20;10.77;;;23.30;58.70;;;;;;5081897;28;20461;-83
2021/04/21 09:23:20;;;;;;;13.90;9.97;;;23.00;57.00;;;;;;5086793;28;20572;-84
2021/04/21 09:25:48;;;;;;;15.50;11.57;;;22.90;57.00;;;;;;5104366;28;20450;-84
2021/04/21 09:28:16;;;;;;;14.57;10.40;;;22.90;56.90;;;;;;5091905;28;20560;-83
2021/04/21 09:30:45;;;;;;;15.30;9.70;;;22.60;57.40;;;;;;5077847;28;20829;-83
2021/04/21 09:33:12;;;;;;;14.40;10.40;;;22.50;56.50;;;;;;5073397;28;20543;-83
2021/04/21 09:35:40;;;;;;;15.60;9.23;;;23.00;56.80;;;;;;5076105;28;20454;-83
2021/04/21 09:38:09;;;;;;;17.20;10.77;;;22.70;58.90;;;;;;5088025;28;20473;-83
2021/04/21 09:40:41;;;;;;;16.40;8.80;;;22.50;57.80;;;;;;5095985;28;20446;-84
2021/04/21 09:43:09;;;;;;;12.73;8.20;;;22.20;57.20;;;;;;5082436;28;20458;-83
2021/04/21 09:45:44;;;;;;;11.80;7.90;;;21.50;56.40;;;;;;5090846;28;20612;-82
2021/04/21 09:48:13;;;;;;;12.83;7.77;;;21.30;57.00;;;;;;5094673;28;20596;-82
2021/04/21 09:50:42;;;;;;;11.37;8.00;;;21.50;59.30;;;;;;5093942;28;20457;-82
2021/04/21 09:53:29;;;;;;;11.27;7.73;;;21.30;57.70;;;;;;5085683;28;20527;-83
2021/04/21 09:56:14;;;;;;;9.77;7.03;;;22.10;58.30;;;;;;5086927;28;20450;-84
2021/04/21 09:58:43;;;;;;;13.67;7.53;;;22.90;57.30;;;;;;5092488;28;20458;-83
2021/04/21 10:01:27;;;;;;;12.27;7.30;;;22.10;55.90;;;;;;5098422;28;20449;-82
2021/04/21 10:04:21;;;;;;;10.23;7.10;;;22.30;56.20;;;;;;5079688;28;20514;-84
2021/04/21 10:06:49;;;;;;;8.47;6.40;;;23.60;58.00;;;;;;5074719;28;20486;-85
2021/04/21 10:09:24;;;;;;;11.93;6.47;;;25.20;56.80;;;;;;5099310;28;20541;-84
2021/04/21 10:11:50;;;;;;;9.53;6.60;;;25.20;57.30;;;;;;5101326;28;20441;-84
2021/04/21 10:14:23;;;;;;;12.43;7.30;;;26.40;53.10;;;;;;5100478;28;20489;-85
2021/04/21 10:16:51;;;;;;;9.27;6.90;;;27.60;52.70;;;;;;5093564;28;20507;-84
2021/04/21 10:19:19;;;;;;;9.00;6.60;;;27.10;51.50;;;;;;5093248;28;20454;-82
2021/04/21 10:21:45;;;;;;;10.50;6.50;;;27.80;51.10;;;;;;5090467;28;20444;-84
2021/04/21 10:24:12;;;;;;;8.57;6.20;;;28.20;51.50;;;;;;5100711;28;20442;-83
2021/04/21 10:26:41;;;;;;;10.37;6.53;;;27.90;49.80;;;;;;5089927;28;20635;-82
2021/04/21 10:29:08;;;;;;;12.17;7.60;;;28.60;49.20;;;;;;5087643;28;20458;-82
2021/04/21 10:31:35;;;;;;;8.87;5.93;;;30.00;47.20;;;;;;5095498;28;21002;-83
2021/04/21 10:34:05;;;;;;;9.90;7.10;;;31.40;48.50;;;;;;5096865;28;20553;-83
2021/04/21 10:36:32;;;;;;;8.70;6.47;;;30.10;46.30;;;;;;5103905;28;20466;-85
2021/04/21 10:38:58;;;;;;;11.00;8.60;;;28.30;48.00;;;;;;5105973;28;20456;-85
2021/04/21 10:41:34;;;;;;;10.87;7.60;;;27.10;47.70;;;;;;5098540;28;20458;-84
2021/04/21 10:44:10;;;;;;;11.07;7.80;;;25.80;48.90;;;;;;5101350;28;20890;-85
2021/04/21 10:47:02;;;;;;;11.87;8.10;;;25.20;50.40;;;;;;5104177;28;20552;-84
2021/04/21 10:50:00;;;;;;;9.73;7.30;;;24.90;51.50;;;;;;5105162;28;20442;-84
2021/04/21 10:52:38;;;;;;;9.90;7.23;;;26.00;54.00;;;;;;5102390;28;20461;-84
2021/04/21 10:55:35;;;;;;;13.40;8.77;;;27.00;50.50;;;;;;5105306;28;20478;-84
2021/04/21 10:58:03;;;;;;;10.33;7.80;;;24.90;50.00;;;;;;5087592;28;20538;-84
2021/04/21 11:00:31;;;;;;;9.00;7.30;;;25.00;50.80;;;;;;5081382;28;20950;-83
2021/04/21 11:03:03;;;;;;;11.10;7.50;;;24.30;51.20;;;;;;5079354;28;20446;-83
2021/04/21 11:05:42;;;;;;;11.77;8.23;;;23.70;51.90;;;;;;5081752;28;20486;-84
2021/04/21 11:08:11;;;;;;;10.50;6.97;;;22.60;53.60;;;;;;5079280;28;20470;-82
2021/04/21 11:10:41;;;;;;;10.33;7.70;;;21.90;56.10;;;;;;5091657;28;20453;-83
2021/04/21 11:13:09;;;;;;;11.60;8.33;;;21.90;54.60;;;;;;5103722;28;20522;-83
2021/04/21 11:15:37;;;;;;;10.53;7.30;;;21.80;54.80;;;;;;5119499;28;20481;-82
2021/04/21 11:18:28;;;;;;;10.17;7.80;;;21.30;54.70;;;;;;5116473;28;20466;-84
2021/04/21 11:20:59;;;;;;;10.33;7.70;;;21.10;54.20;;;;;;5095237;28;20875;-84
2021/04/21 11:23:50;;;;;;;15.83;7.80;;;21.30;56.20;;;;;;5133951;22;20608;-86
2021/04/21 11:26:37;;;;;;;10.23;7.10;;;21.30;55.00;;;;;;5092748;28;20466;-84
2021/04/21 11:29:06;;;;;;;8.47;6.40;;;21.20;53.00;;;;;;5098586;28;20464;-85
2021/04/21 11:32:17;;;;;;;11.50;7.37;;;21.60;54.80;;;;;;5100485;28;20445;-85
2021/04/21 11:34:43;;;;;;;11.93;7.77;;;21.90;54.50;;;;;;5119517;28;20468;-85
2021/04/21 11:37:15;;;;;;;11.13;8.10;;;21.60;52.30;;;;;;5113947;28;20449;-85
2021/04/21 11:39:56;;;;;;;12.03;7.60;;;21.60;53.90;;;;;;5120382;28;20548;-84
2021/04/21 11:42:29;;;;;;;9.67;6.97;;;21.90;52.30;;;;;;5121240;28;20461;-85
2021/04/21 11:45:00;;;;;;;12.50;8.30;;;22.00;54.20;;;;;;5119859;28;20473;-85
2021/04/21 11:47:41;;;;;;;10.30;7.40;;;22.40;55.00;;;;;;5099998;28;20432;-85
2021/04/21 11:50:37;;;;;;;11.50;7.67;;;22.60;53.50;;;;;;5106690;28;20457;-85
2021/04/21 11:53:17;;;;;;;12.10;8.90;;;23.00;54.30;;;;;;5089970;27;20469;-85
2021/04/21 11:55:55;;;;;;;12.90;7.97;;;23.00;51.40;;;;;;5127675;27;20446;-87
2021/04/21 11:58:24;;;;;;;12.60;9.63;;;23.80;54.00;;;;;;5126168;27;20955;-87
2021/04/21 12:00:57;;;;;;;13.73;8.30;;;22.70;52.70;;;;;;5124274;27;20513;-85
2021/04/21 12:03:25;;;;;;;14.27;10.00;;;22.80;53.20;;;;;;5143798;27;20452;-87
2021/04/21 12:05:56;;;;;;;13.73;8.70;;;22.00;52.80;;;;;;5133697;27;20873;-85
2021/04/21 12:08:24;;;;;;;12.60;9.50;;;22.40;54.70;;;;;;5140203;27;20437;-86
2021/04/21 12:10:51;;;;;;;11.30;8.27;;;22.50;55.10;;;;;;5124787;27;20453;-85
2021/04/21 12:13:21;;;;;;;12.47;10.40;;;22.70;55.10;;;;;;5122687;27;20632;-85
2021/04/21 12:15:49;;;;;;;10.80;8.70;;;22.70;51.70;;;;;;5115155;27;20438;-85
2021/04/21 12:18:31;;;;;;;10.10;7.17;;;24.50;52.70;;;;;;5106985;28;21051;-85
2021/04/21 12:20:58;;;;;;;12.93;10.10;;;27.90;54.70;;;;;;5099232;28;20612;-86
2021/04/21 12:23:32;;;;;;;15.10;10.17;;;29.20;50.50;;;;;;5112553;27;20488;-86
2021/04/21 12:25:59;;;;;;;10.10;8.70;;;29.70;49.00;;;;;;5131712;27;20535;-84
2021/04/21 12:28:27;;;;;;;10.83;8.70;;;31.70;49.40;;;;;;5122510;27;20517;-85
2021/04/21 12:30:56;;;;;;;12.40;9.80;;;33.10;46.90;;;;;;5140450;27;20468;-88
2021/04/21 12:33:23;;;;;;;12.03;10.07;;;31.40;45.70;;;;;;5118487;27;20484;-86
2021/04/21 12:35:54;;;;;;;12.57;9.20;;;29.50;46.10;;;;;;5123766;27;20473;-84
2021/04/21 12:38:29;;;;;;;14.07;9.90;;;28.40;46.40;;;;;;5128365;27;20532;-87
2021/04/21 12:40:58;;;;;;;9.80;8.07;;;29.10;50.70;;;;;;5122349;28;20863;-85
2021/04/21 12:43:28;;;;;;;10.90;8.77;;;29.50;47.90;;;;;;5119012;28;20465;-85
2021/04/21 12:46:11;;;;;;;12.93;10.50;;;30.00;47.70;;;;;;5120876;27;20449;-84
2021/04/21 12:48:50;;;;;;;13.87;10.67;;;30.20;47.40;;;;;;5126125;27;20472;-86
2021/04/21 12:51:20;;;;;;;12.60;10.50;;;29.50;46.60;;;;;;5121889;27;20456;-85
2021/04/21 12:53:47;;;;;;;14.70;10.23;;;29.50;46.80;;;;;;5121481;27;20528;-84